sensor_id;sensor_type;location;lat;lon;timestamp;pressure;altitude;pressure_sealevel;temperature
64947;BMP280;51469;52.150;4.682;2023-09-30T00:03:20;102646.69;;;19.22
64947;BMP280;51469;52.150;4.682;2023-09-30T00:05:45;102652.25;;;19.22
64947;BMP280;51469;52.150;4.682;2023-09-30T00:08:11;102657.81;;;19.15
64947;BMP280;51469;52.150;4.682;2023-09-30T00:10:36;102657.00;;;19.11
64947;BMP280;51469;52.150;4.682;2023-09-30T00:13:01;102666.16;;;19.22
64947;BMP280;51469;52.150;4.682;2023-09-30T00:15:27;102668.56;;;19.23
64947;BMP280;51469;52.150;4.682;2023-09-30T00:17:52;102668.16;;;19.25
64947;BMP280;51469;52.150;4.682;2023-09-30T00:20:17;102672.94;;;19.28
64947;BMP280;51469;52.150;4.682;2023-09-30T00:22:43;102681.66;;;19.23
64947;BMP280;51469;52.150;4.682;2023-09-30T00:25:09;102677.72;;;19.24
64947;BMP280;51469;52.150;4.682;2023-09-30T00:27:35;102680.88;;;19.19
64947;BMP280;51469;52.150;4.682;2023-09-30T00:30:01;102677.72;;;19.24
64947;BMP280;51469;52.150;4.682;2023-09-30T00:32:26;102670.53;;;19.23
64947;BMP280;51469;52.150;4.682;2023-09-30T00:34:52;102674.50;;;19.18
64947;BMP280;51469;52.150;4.682;2023-09-30T00:37:19;102685.63;;;19.22
64947;BMP280;51469;52.150;4.682;2023-09-30T00:39:44;102680.06;;;19.22
64947;BMP280;51469;52.150;4.682;2023-09-30T00:42:10;102669.75;;;19.19
64947;BMP280;51469;52.150;4.682;2023-09-30T00:44:35;102688.44;;;19.22
64947;BMP280;51469;52.150;4.682;2023-09-30T00:47:00;102679.25;;;19.18
64947;BMP280;51469;52.150;4.682;2023-09-30T00:49:27;102680.44;;;19.13
64947;BMP280;51469;52.150;4.682;2023-09-30T00:51:54;102687.19;;;19.09
64947;BMP280;51469;52.150;4.682;2023-09-30T00:54:20;102694.34;;;19.06
64947;BMP280;51469;52.150;4.682;2023-09-30T00:56:47;102694.72;;;19.05
64947;BMP280;51469;52.150;4.682;2023-09-30T00:59:14;102706.66;;;19.02
64947;BMP280;51469;52.150;4.682;2023-09-30T01:01:41;102707.03;;;18.97
64947;BMP280;51469;52.150;4.682;2023-09-30T01:04:07;102704.25;;;18.97
64947;BMP280;51469;52.150;4.682;2023-09-30T01:06:32;102706.97;;;18.90
64947;BMP280;51469;52.150;4.682;2023-09-30T01:08:57;102720.13;;;18.93
64947;BMP280;51469;52.150;4.682;2023-09-30T01:11:24;102722.91;;;18.93
64947;BMP280;51469;52.150;4.682;2023-09-30T01:13:51;102712.97;;;18.92
64947;BMP280;51469;52.150;4.682;2023-09-30T01:16:16;102707.03;;;18.97
64947;BMP280;51469;52.150;4.682;2023-09-30T01:18:42;102711.78;;;19.00
64947;BMP280;51469;52.150;4.682;2023-09-30T01:21:08;102708.22;;;19.03
64947;BMP280;51469;52.150;4.682;2023-09-30T01:23:34;102719.34;;;19.03
64947;BMP280;51469;52.150;4.682;2023-09-30T01:28:29;102713.41;;;19.01
64947;BMP280;51469;52.150;4.682;2023-09-30T01:30:55;102710.19;;;18.99
64947;BMP280;51469;52.150;4.682;2023-09-30T01:33:20;102717.78;;;19.02
64947;BMP280;51469;52.150;4.682;2023-09-30T01:35:46;102717.34;;;19.00
64947;BMP280;51469;52.150;4.682;2023-09-30T01:38:11;102707.03;;;19.00
64947;BMP280;51469;52.150;4.682;2023-09-30T01:40:36;102699.50;;;18.97
64947;BMP280;51469;52.150;4.682;2023-09-30T01:43:05;102691.16;;;18.97
64947;BMP280;51469;52.150;4.682;2023-09-30T01:45:30;102694.31;;;19.03
64947;BMP280;51469;52.150;4.682;2023-09-30T01:47:55;102691.16;;;19.01
64947;BMP280;51469;52.150;4.682;2023-09-30T01:50:21;102695.91;;;18.97
64947;BMP280;51469;52.150;4.682;2023-09-30T01:52:46;102687.13;;;18.91
64947;BMP280;51469;52.150;4.682;2023-09-30T01:55:11;102692.69;;;18.88
64947;BMP280;51469;52.150;4.682;2023-09-30T01:57:37;102705.41;;;18.92
64947;BMP280;51469;52.150;4.682;2023-09-30T02:00:03;102709.38;;;18.91
64947;BMP280;51469;52.150;4.682;2023-09-30T02:02:28;102713.34;;;18.94
64947;BMP280;51469;52.150;4.682;2023-09-30T02:04:53;102717.78;;;19.02
64947;BMP280;51469;52.150;4.682;2023-09-30T02:07:19;102717.38;;;19.07
64947;BMP280;51469;52.150;4.682;2023-09-30T02:09:44;102723.38;;;19.12
64947;BMP280;51469;52.150;4.682;2023-09-30T02:12:10;102720.22;;;19.21
64947;BMP280;51469;52.150;4.682;2023-09-30T02:14:35;102703.16;;;19.19
64947;BMP280;51469;52.150;4.682;2023-09-30T02:17:01;102713.50;;;19.29
64947;BMP280;51469;52.150;4.682;2023-09-30T02:19:26;102699.59;;;19.36
64947;BMP280;51469;52.150;4.682;2023-09-30T02:21:52;102698.81;;;19.46
64947;BMP280;51469;52.150;4.682;2023-09-30T02:24:18;102703.97;;;19.44
64947;BMP280;51469;52.150;4.682;2023-09-30T02:26:43;102702.38;;;19.43
64947;BMP280;51469;52.150;4.682;2023-09-30T02:29:09;102699.59;;;19.36
64947;BMP280;51469;52.150;4.682;2023-09-30T02:31:34;102698.00;;;19.42
64947;BMP280;51469;52.150;4.682;2023-09-30T02:34:00;102695.22;;;19.42
64947;BMP280;51469;52.150;4.682;2023-09-30T02:36:28;102692.03;;;19.36
64947;BMP280;51469;52.150;4.682;2023-09-30T02:38:54;102691.63;;;19.38
64947;BMP280;51469;52.150;4.682;2023-09-30T02:41:19;102693.66;;;19.48
64947;BMP280;51469;52.150;4.682;2023-09-30T02:43:44;102699.22;;;19.51
64947;BMP280;51469;52.150;4.682;2023-09-30T02:46:10;102692.84;;;19.51
64947;BMP280;51469;52.150;4.682;2023-09-30T02:48:35;102700.03;;;19.48
64947;BMP280;51469;52.150;4.682;2023-09-30T02:51:00;102700.03;;;19.52
64947;BMP280;51469;52.150;4.682;2023-09-30T02:53:26;102702.81;;;19.52
64947;BMP280;51469;52.150;4.682;2023-09-30T02:55:51;102696.84;;;19.50
64947;BMP280;51469;52.150;4.682;2023-09-30T02:58:21;102695.63;;;19.51
64947;BMP280;51469;52.150;4.682;2023-09-30T03:00:49;102686.88;;;19.52
64947;BMP280;51469;52.150;4.682;2023-09-30T03:03:15;102687.25;;;19.44
64947;BMP280;51469;52.150;4.682;2023-09-30T03:05:40;102689.66;;;19.49
64947;BMP280;51469;52.150;4.682;2023-09-30T03:08:06;102694.47;;;19.52
64947;BMP280;51469;52.150;4.682;2023-09-30T03:10:31;102694.47;;;19.52
64947;BMP280;51469;52.150;4.682;2023-09-30T03:12:57;102684.09;;;19.52
64947;BMP280;51469;52.150;4.682;2023-09-30T03:15:31;102687.28;;;19.51
64947;BMP280;51469;52.150;4.682;2023-09-30T03:17:57;102686.50;;;19.54
64947;BMP280;51469;52.150;4.682;2023-09-30T03:20:22;102679.72;;;19.55
64947;BMP280;51469;52.150;4.682;2023-09-30T03:22:50;102683.31;;;19.52
64947;BMP280;51469;52.150;4.682;2023-09-30T03:25:17;102680.94;;;19.54
64947;BMP280;51469;52.150;4.682;2023-09-30T03:27:44;102688.09;;;19.48
64947;BMP280;51469;52.150;4.682;2023-09-30T03:30:10;102686.50;;;19.47
64947;BMP280;51469;52.150;4.682;2023-09-30T03:32:37;102696.44;;;19.55
64947;BMP280;51469;52.150;4.682;2023-09-30T03:35:07;102685.72;;;19.57
64947;BMP280;51469;52.150;4.682;2023-09-30T03:37:32;102690.47;;;19.60
64947;BMP280;51469;52.150;4.682;2023-09-30T03:39:58;102691.25;;;19.64
64947;BMP280;51469;52.150;4.682;2023-09-30T03:42:23;102691.25;;;19.64
64947;BMP280;51469;52.150;4.682;2023-09-30T03:44:49;102684.91;;;19.60
64947;BMP280;51469;52.150;4.682;2023-09-30T03:47:15;102695.28;;;19.63
64947;BMP280;51469;52.150;4.682;2023-09-30T03:49:42;102691.25;;;19.64
64947;BMP280;51469;52.150;4.682;2023-09-30T03:52:08;102687.69;;;19.63
64947;BMP280;51469;52.150;4.682;2023-09-30T03:54:34;102694.47;;;19.52
64947;BMP280;51469;52.150;4.682;2023-09-30T03:57:00;102681.31;;;19.49
64947;BMP280;51469;52.150;4.682;2023-09-30T03:59:26;102684.94;;;19.67
64947;BMP280;51469;52.150;4.682;2023-09-30T04:01:52;102695.28;;;19.70
64947;BMP280;51469;52.150;4.682;2023-09-30T04:04:19;102691.28;;;19.71
64947;BMP280;51469;52.150;4.682;2023-09-30T04:06:47;102699.66;;;19.67
64947;BMP280;51469;52.150;4.682;2023-09-30T04:09:15;102688.91;;;19.62
64947;BMP280;51469;52.150;4.682;2023-09-30T04:11:41;102680.94;;;19.68
64947;BMP280;51469;52.150;4.682;2023-09-30T04:14:07;102687.31;;;19.68
64947;BMP280;51469;52.150;4.682;2023-09-30T04:16:33;102686.50;;;19.68
64947;BMP280;51469;52.150;4.682;2023-09-30T04:18:59;102694.84;;;19.61
64947;BMP280;51469;52.150;4.682;2023-09-30T04:21:25;102701.63;;;19.60
64947;BMP280;51469;52.150;4.682;2023-09-30T04:23:52;102706.41;;;19.63
64947;BMP280;51469;52.150;4.682;2023-09-30T04:26:17;102703.59;;;19.59
64947;BMP280;51469;52.150;4.682;2023-09-30T04:28:42;102701.63;;;19.60
64947;BMP280;51469;52.150;4.682;2023-09-30T04:31:09;102710.00;;;19.67
64947;BMP280;51469;52.150;4.682;2023-09-30T04:33:35;102700.03;;;19.62
64947;BMP280;51469;52.150;4.682;2023-09-30T04:36:01;102704.78;;;19.55
64947;BMP280;51469;52.150;4.682;2023-09-30T04:38:27;102708.78;;;19.68
64947;BMP280;51469;52.150;4.682;2023-09-30T04:40:52;102707.19;;;19.70
64947;BMP280;51469;52.150;4.682;2023-09-30T04:43:19;102712.78;;;19.74
64947;BMP280;51469;52.150;4.682;2023-09-30T04:45:46;102708.00;;;19.78
64947;BMP280;51469;52.150;4.682;2023-09-30T04:48:12;102724.72;;;19.81
64947;BMP280;51469;52.150;4.682;2023-09-30T04:50:39;102723.91;;;19.74
64947;BMP280;51469;52.150;4.682;2023-09-30T04:53:04;102719.16;;;19.78
64947;BMP280;51469;52.150;4.682;2023-09-30T04:55:29;102715.97;;;19.90
64947;BMP280;51469;52.150;4.682;2023-09-30T04:57:55;102714.34;;;19.82
64947;BMP280;51469;52.150;4.682;2023-09-30T05:00:20;102710.41;;;19.90
64947;BMP280;51469;52.150;4.682;2023-09-30T05:02:51;102707.59;;;19.93
64947;BMP280;51469;52.150;4.682;2023-09-30T05:05:18;102716.78;;;20.01
64947;BMP280;51469;52.150;4.682;2023-09-30T05:07:43;102702.84;;;20.01
64947;BMP280;51469;52.150;4.682;2023-09-30T05:10:10;102711.19;;;19.94
64947;BMP280;51469;52.150;4.682;2023-09-30T05:12:38;102717.97;;;19.86
64947;BMP280;51469;52.150;4.682;2023-09-30T05:15:04;102707.63;;;19.76
64947;BMP280;51469;52.150;4.682;2023-09-30T05:17:31;102721.56;;;19.76
64947;BMP280;51469;52.150;4.682;2023-09-30T05:19:57;102727.09;;;19.65
64947;BMP280;51469;52.150;4.682;2023-09-30T05:22:23;102714.34;;;19.68
64947;BMP280;51469;52.150;4.682;2023-09-30T05:24:53;102715.13;;;19.72
64947;BMP280;51469;52.150;4.682;2023-09-30T05:27:19;102720.72;;;19.65
64947;BMP280;51469;52.150;4.682;2023-09-30T05:29:45;102716.75;;;19.66
64947;BMP280;51469;52.150;4.682;2023-09-30T05:32:10;102731.06;;;19.68
64947;BMP280;51469;52.150;4.682;2023-09-30T05:34:36;102722.31;;;19.66
64947;BMP280;51469;52.150;4.682;2023-09-30T05:37:02;102715.97;;;19.62
64947;BMP280;51469;52.150;4.682;2023-09-30T05:39:28;102714.34;;;19.57
64947;BMP280;51469;52.150;4.682;2023-09-30T05:41:54;102720.72;;;19.58
64947;BMP280;51469;52.150;4.682;2023-09-30T05:44:20;102720.69;;;19.51
64947;BMP280;51469;52.150;4.682;2023-09-30T05:46:45;102725.09;;;19.52
64947;BMP280;51469;52.150;4.682;2023-09-30T05:49:11;102728.66;;;19.49
64947;BMP280;51469;52.150;4.682;2023-09-30T05:51:39;102732.63;;;19.41
64947;BMP280;51469;52.150;4.682;2023-09-30T05:54:06;102727.03;;;19.34
64947;BMP280;51469;52.150;4.682;2023-09-30T05:56:35;102742.97;;;19.37
64947;BMP280;51469;52.150;4.682;2023-09-30T05:59:00;102743.75;;;19.34
64947;BMP280;51469;52.150;4.682;2023-09-30T06:01:25;102742.91;;;19.30
64947;BMP280;51469;52.150;4.682;2023-09-30T06:03:53;102736.97;;;19.31
64947;BMP280;51469;52.150;4.682;2023-09-30T06:06:18;102733.78;;;19.33
64947;BMP280;51469;52.150;4.682;2023-09-30T06:08:44;102737.78;;;19.32
64947;BMP280;51469;52.150;4.682;2023-09-30T06:11:20;102732.59;;;19.34
64947;BMP280;51469;52.150;4.682;2023-09-30T06:13:52;102746.16;;;19.39
64947;BMP280;51469;52.150;4.682;2023-09-30T06:16:20;102731.03;;;19.40
64947;BMP280;51469;52.150;4.682;2023-09-30T06:18:46;102743.78;;;19.48
64947;BMP280;51469;52.150;4.682;2023-09-30T06:21:14;102740.59;;;19.46
64947;BMP280;51469;52.150;4.682;2023-09-30T06:23:46;102750.94;;;19.49
64947;BMP280;51469;52.150;4.682;2023-09-30T06:26:11;102744.97;;;19.47
64947;BMP280;51469;52.150;4.682;2023-09-30T06:28:37;102760.91;;;19.57
64947;BMP280;51469;52.150;4.682;2023-09-30T06:31:07;102766.09;;;19.62
64947;BMP280;51469;52.150;4.682;2023-09-30T06:33:38;102769.25;;;19.64
64947;BMP280;51469;52.150;4.682;2023-09-30T06:36:14;102785.63;;;19.79
64947;BMP280;51469;52.150;4.682;2023-09-30T06:38:40;102779.25;;;19.93
64947;BMP280;51469;52.150;4.682;2023-09-30T06:41:08;102778.47;;;19.96
64947;BMP280;51469;52.150;4.682;2023-09-30T06:43:35;102773.28;;;20.05
64947;BMP280;51469;52.150;4.682;2023-09-30T06:46:07;102767.72;;;20.05
64947;BMP280;51469;52.150;4.682;2023-09-30T06:48:36;102778.09;;;20.01
64947;BMP280;51469;52.150;4.682;2023-09-30T06:51:02;102775.69;;;20.06
64947;BMP280;51469;52.150;4.682;2023-09-30T06:53:28;102783.63;;;20.15
64947;BMP280;51469;52.150;4.682;2023-09-30T06:55:53;102791.22;;;20.11
64947;BMP280;51469;52.150;4.682;2023-09-30T06:58:18;102783.63;;;20.15
64947;BMP280;51469;52.150;4.682;2023-09-30T07:00:49;102796.41;;;20.16
64947;BMP280;51469;52.150;4.682;2023-09-30T07:03:15;102797.19;;;20.27
64947;BMP280;51469;52.150;4.682;2023-09-30T07:05:41;102803.56;;;20.38
64947;BMP280;51469;52.150;4.682;2023-09-30T07:08:06;102806.72;;;20.43
64947;BMP280;51469;52.150;4.682;2023-09-30T07:10:32;102801.16;;;20.47
64947;BMP280;51469;52.150;4.682;2023-09-30T07:12:57;102807.53;;;20.58
64947;BMP280;51469;52.150;4.682;2023-09-30T07:15:23;102797.97;;;20.62
64947;BMP280;51469;52.150;4.682;2023-09-30T07:17:48;102793.97;;;20.67
64947;BMP280;51469;52.150;4.682;2023-09-30T07:20:14;102796.34;;;20.65
64947;BMP280;51469;52.150;4.682;2023-09-30T07:22:40;102808.31;;;20.62
64947;BMP280;51469;52.150;4.682;2023-09-30T07:25:06;102813.94;;;20.41
64947;BMP280;51469;52.150;4.682;2023-09-30T07:27:32;102819.47;;;20.62
64947;BMP280;51469;52.150;4.682;2023-09-30T07:29:57;102816.28;;;20.60
64947;BMP280;51469;52.150;4.682;2023-09-30T07:32:23;102827.84;;;20.62
64947;BMP280;51469;52.150;4.682;2023-09-30T07:34:49;102823.44;;;20.68
64947;BMP280;51469;52.150;4.682;2023-09-30T07:37:14;102829.00;;;20.64
64947;BMP280;51469;52.150;4.682;2023-09-30T07:39:40;102826.25;;;20.47
64947;BMP280;51469;52.150;4.682;2023-09-30T07:42:08;102843.81;;;20.51
64947;BMP280;51469;52.150;4.682;2023-09-30T07:44:34;102837.78;;;20.56
64947;BMP280;51469;52.150;4.682;2023-09-30T07:47:01;102828.25;;;20.57
64947;BMP280;51469;52.150;4.682;2023-09-30T07:49:29;102802.72;;;20.69
64947;BMP280;51469;52.150;4.682;2023-09-30T07:51:54;102809.47;;;20.82
64947;BMP280;51469;52.150;4.682;2023-09-30T07:54:20;102809.00;;;21.01
64947;BMP280;51469;52.150;4.682;2023-09-30T07:56:45;102813.75;;;21.11
64947;BMP280;51469;52.150;4.682;2023-09-30T07:59:11;102805.75;;;21.20
64947;BMP280;51469;52.150;4.682;2023-09-30T08:01:36;102800.06;;;21.41
64947;BMP280;51469;52.150;4.682;2023-09-30T08:04:02;102795.88;;;21.73
64947;BMP280;51469;52.150;4.682;2023-09-30T08:06:28;102790.00;;;22.05
64947;BMP280;51469;52.150;4.682;2023-09-30T08:08:53;102781.50;;;22.19
64947;BMP280;51469;52.150;4.682;2023-09-30T08:11:20;102781.69;;;22.42
64947;BMP280;51469;52.150;4.682;2023-09-30T08:13:46;102782.50;;;22.39
64947;BMP280;51469;52.150;4.682;2023-09-30T08:16:11;102784.34;;;22.56
64947;BMP280;51469;52.150;4.682;2023-09-30T08:18:37;102785.09;;;22.60
64947;BMP280;51469;52.150;4.682;2023-09-30T08:21:02;102786.28;;;22.59
64947;BMP280;51469;52.150;4.682;2023-09-30T08:23:31;102790.28;;;22.58
64947;BMP280;51469;52.150;4.682;2023-09-30T08:25:59;102782.19;;;22.67
64947;BMP280;51469;52.150;4.682;2023-09-30T08:28:24;102792.66;;;22.63
64947;BMP280;51469;52.150;4.682;2023-09-30T08:30:50;102799.69;;;22.78
64947;BMP280;51469;52.150;4.682;2023-09-30T08:33:19;102788.69;;;22.93
64947;BMP280;51469;52.150;4.682;2023-09-30T08:35:45;102785.88;;;22.93
64947;BMP280;51469;52.150;4.682;2023-09-30T08:38:10;102788.19;;;22.98
64947;BMP280;51469;52.150;4.682;2023-09-30T08:40:35;102790.25;;;22.94
64947;BMP280;51469;52.150;4.682;2023-09-30T08:43:03;102796.06;;;23.10
64947;BMP280;51469;52.150;4.682;2023-09-30T08:45:32;102799.97;;;23.16
64947;BMP280;51469;52.150;4.682;2023-09-30T08:47:59;102799.09;;;23.23
64947;BMP280;51469;52.150;4.682;2023-09-30T08:50:31;102805.09;;;23.51
64947;BMP280;51469;52.150;4.682;2023-09-30T08:52:56;102808.22;;;23.53
64947;BMP280;51469;52.150;4.682;2023-09-30T08:55:23;102817.84;;;23.52
64947;BMP280;51469;52.150;4.682;2023-09-30T08:57:49;102823.84;;;23.54
64947;BMP280;51469;52.150;4.682;2023-09-30T09:00:15;102834.63;;;23.56
64947;BMP280;51469;52.150;4.682;2023-09-30T09:02:42;102840.31;;;23.49
64947;BMP280;51469;52.150;4.682;2023-09-30T09:05:07;102842.56;;;23.61
64947;BMP280;51469;52.150;4.682;2023-09-30T09:07:35;102847.28;;;23.67
64947;BMP280;51469;52.150;4.682;2023-09-30T09:12:30;102848.66;;;24.05
64947;BMP280;51469;52.150;4.682;2023-09-30T09:14:56;102867.00;;;24.33
64947;BMP280;51469;52.150;4.682;2023-09-30T09:17:21;102866.50;;;24.18
64947;BMP280;51469;52.150;4.682;2023-09-30T09:20:08;102873.31;;;24.40
64947;BMP280;51469;52.150;4.682;2023-09-30T09:22:42;102873.81;;;24.35
64947;BMP280;51469;52.150;4.682;2023-09-30T09:25:07;102868.19;;;24.12
64947;BMP280;51469;52.150;4.682;2023-09-30T09:27:33;102869.25;;;24.22
64947;BMP280;51469;52.150;4.682;2023-09-30T09:30:14;102855.97;;;24.22
64947;BMP280;51469;52.150;4.682;2023-09-30T09:33:04;102857.56;;;24.23
64947;BMP280;51469;52.150;4.682;2023-09-30T09:35:33;102868.78;;;24.23
64947;BMP280;51469;52.150;4.682;2023-09-30T09:38:04;102867.13;;;24.26
64947;BMP280;51469;52.150;4.682;2023-09-30T09:40:36;102873.66;;;24.42
64947;BMP280;51469;52.150;4.682;2023-09-30T09:43:03;102862.00;;;24.44
64947;BMP280;51469;52.150;4.682;2023-09-30T09:45:33;102858.41;;;24.43
64947;BMP280;51469;52.150;4.682;2023-09-30T09:48:00;102857.19;;;24.44
64947;BMP280;51469;52.150;4.682;2023-09-30T09:50:25;102865.25;;;24.42
64947;BMP280;51469;52.150;4.682;2023-09-30T09:52:52;102868.69;;;24.30
64947;BMP280;51469;52.150;4.682;2023-09-30T09:55:21;102869.19;;;24.25
64947;BMP280;51469;52.150;4.682;2023-09-30T09:57:48;102869.78;;;24.13
64947;BMP280;51469;52.150;4.682;2023-09-30T10:00:22;102872.31;;;24.04
64947;BMP280;51469;52.150;4.682;2023-09-30T10:02:49;102861.94;;;24.01
64947;BMP280;51469;52.150;4.682;2023-09-30T10:05:16;102854.88;;;23.93
64947;BMP280;51469;52.150;4.682;2023-09-30T10:07:50;102836.56;;;23.85
64947;BMP280;51469;52.150;4.682;2023-09-30T10:10:19;102838.06;;;23.93
64947;BMP280;51469;52.150;4.682;2023-09-30T10:12:45;102838.06;;;23.93
64947;BMP280;51469;52.150;4.682;2023-09-30T10:18:04;102838.09;;;23.90
64947;BMP280;51469;52.150;4.682;2023-09-30T10:20:31;102840.00;;;23.96
64947;BMP280;51469;52.150;4.682;2023-09-30T10:23:22;102840.25;;;24.05
64947;BMP280;51469;52.150;4.682;2023-09-30T10:28:41;102835.28;;;24.13
64947;BMP280;51469;52.150;4.682;2023-09-30T10:36:33;102820.75;;;24.21
64947;BMP280;51469;52.150;4.682;2023-09-30T10:39:00;102828.59;;;24.30
64947;BMP280;51469;52.150;4.682;2023-09-30T10:46:53;102835.44;;;24.29
64947;BMP280;51469;52.150;4.682;2023-09-30T10:51:51;102842.78;;;24.42
64947;BMP280;51469;52.150;4.682;2023-09-30T10:54:24;102838.94;;;24.56
64947;BMP280;51469;52.150;4.682;2023-09-30T10:56:50;102820.16;;;24.72
64947;BMP280;51469;52.150;4.682;2023-09-30T10:59:20;102831.44;;;24.88
64947;BMP280;51469;52.150;4.682;2023-09-30T11:01:45;102823.63;;;24.80
64947;BMP280;51469;52.150;4.682;2023-09-30T11:04:11;102833.13;;;24.86
64947;BMP280;51469;52.150;4.682;2023-09-30T11:06:40;102831.22;;;24.99
64947;BMP280;51469;52.150;4.682;2023-09-30T11:09:06;102826.09;;;25.13
64947;BMP280;51469;52.150;4.682;2023-09-30T11:14:30;102813.28;;;25.12
64947;BMP280;51469;52.150;4.682;2023-09-30T11:17:00;102796.13;;;25.58
64947;BMP280;51469;52.150;4.682;2023-09-30T11:19:34;102785.72;;;25.87
64947;BMP280;51469;52.150;4.682;2023-09-30T11:22:00;102788.38;;;25.78
64947;BMP280;51469;52.150;4.682;2023-09-30T11:24:26;102793.47;;;25.99
64947;BMP280;51469;52.150;4.682;2023-09-30T11:26:55;102800.16;;;25.89
64947;BMP280;51469;52.150;4.682;2023-09-30T11:29:21;102816.19;;;26.20
64947;BMP280;51469;52.150;4.682;2023-09-30T11:31:47;102812.06;;;26.09
64947;BMP280;51469;52.150;4.682;2023-09-30T11:34:15;102815.03;;;26.34
64947;BMP280;51469;52.150;4.682;2023-09-30T11:36:48;102819.69;;;26.53
64947;BMP280;51469;52.150;4.682;2023-09-30T11:39:25;102819.84;;;26.62
64947;BMP280;51469;52.150;4.682;2023-09-30T11:41:50;102812.22;;;26.75
64947;BMP280;51469;52.150;4.682;2023-09-30T11:44:17;102809.03;;;26.73
64947;BMP280;51469;52.150;4.682;2023-09-30T11:46:50;102819.88;;;26.46
64947;BMP280;51469;52.150;4.682;2023-09-30T11:49:43;102817.47;;;26.60
64947;BMP280;51469;52.150;4.682;2023-09-30T11:52:14;102810.84;;;26.38
64947;BMP280;51469;52.150;4.682;2023-09-30T11:54:44;102806.00;;;26.10
64947;BMP280;51469;52.150;4.682;2023-09-30T11:57:18;102785.78;;;25.99
64947;BMP280;51469;52.150;4.682;2023-09-30T11:59:45;102780.53;;;26.01
64947;BMP280;51469;52.150;4.682;2023-09-30T12:02:11;102777.66;;;25.89
64947;BMP280;51469;52.150;4.682;2023-09-30T12:04:38;102773.34;;;25.84
64947;BMP280;51469;52.150;4.682;2023-09-30T12:07:04;102774.31;;;25.78
64947;BMP280;51469;52.150;4.682;2023-09-30T12:09:29;102781.34;;;25.70
64947;BMP280;51469;52.150;4.682;2023-09-30T12:11:57;102780.28;;;25.64
64947;BMP280;51469;52.150;4.682;2023-09-30T12:14:23;102784.16;;;25.70
64947;BMP280;51469;52.150;4.682;2023-09-30T12:16:49;102771.69;;;25.71
64947;BMP280;51469;52.150;4.682;2023-09-30T12:19:18;102774.16;;;25.69
64947;BMP280;51469;52.150;4.682;2023-09-30T12:21:45;102772.38;;;25.59
64947;BMP280;51469;52.150;4.682;2023-09-30T12:24:16;102784.16;;;25.54
64947;BMP280;51469;52.150;4.682;2023-09-30T12:26:46;102791.63;;;25.45
64947;BMP280;51469;52.150;4.682;2023-09-30T12:29:15;102789.06;;;25.34
64947;BMP280;51469;52.150;4.682;2023-09-30T12:31:45;102795.03;;;25.20
64947;BMP280;51469;52.150;4.682;2023-09-30T12:34:12;102786.75;;;25.13
64947;BMP280;51469;52.150;4.682;2023-09-30T12:36:38;102782.78;;;25.11
64947;BMP280;51469;52.150;4.682;2023-09-30T12:39:04;102784.81;;;25.10
64947;BMP280;51469;52.150;4.682;2023-09-30T12:41:40;102775.63;;;25.26
64947;BMP280;51469;52.150;4.682;2023-09-30T12:44:10;102785.03;;;25.35
64947;BMP280;51469;52.150;4.682;2023-09-30T12:46:36;102785.75;;;25.55
64947;BMP280;51469;52.150;4.682;2023-09-30T12:49:08;102774.84;;;25.57
64947;BMP280;51469;52.150;4.682;2023-09-30T12:51:34;102771.59;;;25.74
64947;BMP280;51469;52.150;4.682;2023-09-30T12:54:00;102759.63;;;25.70
64947;BMP280;51469;52.150;4.682;2023-09-30T12:56:26;102761.03;;;25.78
64947;BMP280;51469;52.150;4.682;2023-09-30T12:58:51;102761.22;;;25.71
64947;BMP280;51469;52.150;4.682;2023-09-30T13:01:17;102758.34;;;25.75
64947;BMP280;51469;52.150;4.682;2023-09-30T13:03:46;102755.53;;;25.75
64947;BMP280;51469;52.150;4.682;2023-09-30T13:06:12;102763.31;;;25.83
64947;BMP280;51469;52.150;4.682;2023-09-30T13:08:37;102750.06;;;25.68
64947;BMP280;51469;52.150;4.682;2023-09-30T13:11:03;102759.50;;;25.90
64947;BMP280;51469;52.150;4.682;2023-09-30T13:13:32;102756.56;;;25.81
64947;BMP280;51469;52.150;4.682;2023-09-30T13:16:01;102755.22;;;25.85
64947;BMP280;51469;52.150;4.682;2023-09-30T13:18:26;102750.72;;;26.04
64947;BMP280;51469;52.150;4.682;2023-09-30T13:20:52;102750.44;;;26.14
64947;BMP280;51469;52.150;4.682;2023-09-30T13:23:18;102734.19;;;26.18
64947;BMP280;51469;52.150;4.682;2023-09-30T13:25:44;102738.94;;;25.93
64947;BMP280;51469;52.150;4.682;2023-09-30T13:28:09;102743.91;;;25.89
64947;BMP280;51469;52.150;4.682;2023-09-30T13:30:35;102747.59;;;25.70
64947;BMP280;51469;52.150;4.682;2023-09-30T13:33:01;102742.50;;;25.81
64947;BMP280;51469;52.150;4.682;2023-09-30T13:35:26;102749.69;;;25.82
64947;BMP280;51469;52.150;4.682;2023-09-30T13:37:51;102745.97;;;26.01
64947;BMP280;51469;52.150;4.682;2023-09-30T13:40:17;102736.97;;;26.06
64947;BMP280;51469;52.150;4.682;2023-09-30T13:42:42;102738.75;;;26.00
64947;BMP280;51469;52.150;4.682;2023-09-30T13:45:08;102738.75;;;26.00
64947;BMP280;51469;52.150;4.682;2023-09-30T13:47:34;102733.72;;;25.79
64947;BMP280;51469;52.150;4.682;2023-09-30T13:50:01;102741.28;;;25.66
64947;BMP280;51469;52.150;4.682;2023-09-30T13:52:28;102741.81;;;25.61
64947;BMP280;51469;52.150;4.682;2023-09-30T13:54:54;102735.56;;;25.38
64947;BMP280;51469;52.150;4.682;2023-09-30T13:57:20;102725.03;;;25.42
64947;BMP280;51469;52.150;4.682;2023-09-30T13:59:46;102719.78;;;25.59
64947;BMP280;51469;52.150;4.682;2023-09-30T14:02:11;102726.59;;;25.74
64947;BMP280;51469;52.150;4.682;2023-09-30T14:04:37;102709.47;;;25.69
64947;BMP280;51469;52.150;4.682;2023-09-30T14:07:04;102725.44;;;25.88
64947;BMP280;51469;52.150;4.682;2023-09-30T14:09:30;102719.50;;;25.98
64947;BMP280;51469;52.150;4.682;2023-09-30T14:11:56;102719.72;;;25.91
64947;BMP280;51469;52.150;4.682;2023-09-30T14:14:24;102718.22;;;25.87
64947;BMP280;51469;52.150;4.682;2023-09-30T14:16:49;102717.13;;;25.97
64947;BMP280;51469;52.150;4.682;2023-09-30T14:19:14;102711.91;;;26.11
64947;BMP280;51469;52.150;4.682;2023-09-30T14:21:40;102713.56;;;26.37
64947;BMP280;51469;52.150;4.682;2023-09-30T14:24:06;102711.78;;;26.56